createdAt,value
2022-11-28T00:01:44.260Z,100342.97
2022-11-28T00:04:12.543Z,100327.50
2022-11-28T00:06:45.621Z,100337.84
2022-11-28T00:09:15.268Z,100332.84
2022-11-28T00:11:44.419Z,100342.56
2022-11-28T00:14:11.599Z,100329.16
2022-11-28T00:16:38.705Z,100320.34
2022-11-28T00:19:06.904Z,100315.16
2022-11-28T00:21:35.184Z,100302.03
2022-11-28T00:24:02.625Z,100303.75
2022-11-28T00:26:38.029Z,100303.81
2022-11-28T00:29:07.008Z,100296.78
2022-11-28T00:31:42.329Z,100298.63
2022-11-28T00:34:12.843Z,100288.75
2022-11-28T00:36:39.837Z,100291.38
2022-11-28T00:39:07.096Z,100286.13
2022-11-28T00:41:35.382Z,100285.19
2022-11-28T00:44:02.478Z,100282.75
2022-11-28T00:46:29.689Z,100281.03
2022-11-28T00:48:58.745Z,100281.78
2022-11-28T00:51:29.701Z,100272.09
2022-11-28T00:54:00.794Z,100275.72
2022-11-28T00:56:35.261Z,100271.47
2022-11-28T00:59:02.766Z,100267.25
2022-11-28T01:01:39.601Z,100256.59
2022-11-28T01:04:09.378Z,100268.88
2022-11-28T01:06:40.229Z,100262.72
2022-11-28T01:09:21.104Z,100264.44
2022-11-28T01:11:50.364Z,100259.31
2022-11-28T01:14:21.062Z,100267.34
2022-11-28T01:16:48.393Z,100257.75
2022-11-28T01:19:16.382Z,100255.19
2022-11-28T01:21:43.451Z,100253.41
2022-11-28T01:24:11.319Z,100258.69
2022-11-28T01:26:40.254Z,100256.91
2022-11-28T01:29:10.767Z,100253.50
2022-11-28T01:31:38.466Z,100243.94
2022-11-28T01:34:05.648Z,100230.00
2022-11-28T01:36:32.633Z,100232.63
2022-11-28T01:38:59.692Z,100225.47
2022-11-28T01:41:28.111Z,100220.38
2022-11-28T01:44:29.660Z,100212.56
2022-11-28T01:46:57.073Z,100201.91
2022-11-28T01:49:37.731Z,100199.19
2022-11-28T01:52:13.064Z,100199.28
2022-11-28T01:54:43.314Z,100198.31
2022-11-28T01:57:17.734Z,100198.31
2022-11-28T02:00:05.121Z,100187.66
2022-11-28T02:02:54.983Z,100182.28
2022-11-28T02:05:23.315Z,100181.44
2022-11-28T02:07:51.654Z,100177.09
2022-11-28T02:10:27.386Z,100162.09
2022-11-28T02:13:11.976Z,100173.25
2022-11-28T02:16:05.188Z,100166.25
2022-11-28T02:19:05.720Z,100161.84
2022-11-28T02:22:01.397Z,100158.31
2022-11-28T02:25:20.642Z,100156.53
2022-11-28T02:28:33.895Z,100153.78
2022-11-28T02:31:39.360Z,100152.00
2022-11-28T02:34:23.859Z,100155.44
2022-11-28T02:36:58.028Z,100146.72
2022-11-28T02:40:03.886Z,100147.50
2022-11-28T02:42:44.295Z,100144.72
2022-11-28T02:45:23.828Z,100137.53
2022-11-28T02:48:07.558Z,100148.88
2022-11-28T02:51:20.932Z,100138.41
2022-11-28T02:53:50.066Z,100141.88
2022-11-28T02:56:17.254Z,100129.59
2022-11-28T02:58:44.283Z,100135.66
2022-11-28T03:01:36.732Z,100132.19
2022-11-28T03:04:22.200Z,100118.22
2022-11-28T03:07:32.932Z,100120.81
2022-11-28T03:10:24.511Z,100109.13
2022-11-28T03:13:00.514Z,100107.25
2022-11-28T03:15:55.547Z,100116.06
2022-11-28T03:18:48.230Z,100120.56
2022-11-28T03:21:56.161Z,100108.50
2022-11-28T03:24:47.479Z,100097.78
2022-11-28T03:27:23.444Z,100093.97
2022-11-28T03:29:56.152Z,100093.25
2022-11-28T03:32:31.976Z,100097.69
2022-11-28T03:35:07.084Z,100081.00
2022-11-28T03:38:10.956Z,100085.25
2022-11-28T03:40:45.155Z,100082.50
2022-11-28T03:43:19.322Z,100071.66
2022-11-28T03:45:52.277Z,100076.13
2022-11-28T03:48:30.546Z,100084.06
2022-11-28T03:51:08.112Z,100082.41
2022-11-28T03:53:53.544Z,100071.06
2022-11-28T03:56:30.832Z,100067.47
2022-11-28T03:59:13.262Z,100079.72
2022-11-28T04:02:06.912Z,100062.59
2022-11-28T04:04:42.207Z,100062.59
2022-11-28T04:07:29.406Z,100066.03
2022-11-28T04:10:03.875Z,100073.13
2022-11-28T04:12:40.235Z,100079.84
2022-11-28T04:15:18.083Z,100087.84
2022-11-28T04:18:10.597Z,100068.78
2022-11-28T04:20:55.863Z,100078.59
2022-11-28T04:23:24.364Z,100068.91
2022-11-28T04:26:18.742Z,100054.88
2022-11-28T04:28:48.687Z,100051.44
2022-11-28T04:31:18.031Z,100054.88
2022-11-28T04:33:50.204Z,100055.88
2022-11-28T04:36:20.614Z,100053.94
2022-11-28T04:38:56.279Z,100044.34
2022-11-28T04:41:41.551Z,100048.81
2022-11-28T04:44:21.025Z,100054.84
2022-11-28T04:46:53.580Z,100050.31
2022-11-28T04:49:21.144Z,100046.66
2022-11-28T04:52:10.555Z,100045.88
2022-11-28T04:55:13.843Z,100037.97
2022-11-28T04:57:46.301Z,100038.78
2022-11-28T05:00:17.968Z,100037.94
2022-11-28T05:02:50.033Z,100036.34
2022-11-28T05:05:25.682Z,100034.47
2022-11-28T05:07:53.546Z,100038.53
2022-11-28T05:10:21.202Z,100031.47
2022-11-28T05:12:48.393Z,100026.34
2022-11-28T05:15:19.184Z,100029.81
2022-11-28T05:17:47.079Z,100022.00
2022-11-28T05:20:14.775Z,100027.38
2022-11-28T05:22:41.768Z,100020.38
2022-11-28T05:25:09.083Z,100017.53
2022-11-28T05:27:36.702Z,100026.31
2022-11-28T05:30:06.331Z,100029.00
2022-11-28T05:32:33.963Z,100028.91
2022-11-28T05:35:00.935Z,100026.22
2022-11-28T05:37:28.293Z,100028.97
2022-11-28T05:39:55.457Z,100021.06
2022-11-28T05:42:22.685Z,100021.88
2022-11-28T05:44:53.012Z,100018.31
2022-11-28T05:47:20.127Z,100022.00
2022-11-28T05:49:47.902Z,100022.84
2022-11-28T05:52:14.887Z,100030.00
2022-11-28T05:54:41.873Z,100022.16
2022-11-28T05:57:08.986Z,100022.06
2022-11-28T05:59:36.286Z,100020.16
2022-11-28T06:02:03.425Z,100023.63
2022-11-28T06:04:30.483Z,100020.03
2022-11-28T06:06:57.583Z,100016.50
2022-11-28T06:09:26.047Z,100017.44
2022-11-28T06:11:53.442Z,100014.03
2022-11-28T06:14:20.860Z,100023.59
2022-11-28T06:16:47.969Z,100021.81
2022-11-28T06:19:15.258Z,100026.22
2022-11-28T06:21:42.762Z,100035.88
2022-11-28T06:24:10.726Z,100025.91
2022-11-28T06:26:37.751Z,100040.00
2022-11-28T06:29:05.613Z,100045.22
2022-11-28T06:31:33.507Z,100041.69
2022-11-28T06:34:00.558Z,100047.75
2022-11-28T06:36:27.827Z,100048.69
2022-11-28T06:38:54.943Z,100055.69
2022-11-28T06:41:23.247Z,100045.28
2022-11-28T06:43:50.660Z,100054.94
2022-11-28T06:46:21.240Z,100058.50
2022-11-28T06:48:51.009Z,100054.16
2022-11-28T06:51:19.120Z,100053.38
2022-11-28T06:53:46.218Z,100058.75
2022-11-28T06:56:17.484Z,100052.63
2022-11-28T06:58:45.452Z,100062.25
2022-11-28T07:01:19.960Z,100061.31
2022-11-28T07:03:48.548Z,100062.13
2022-11-28T07:06:19.846Z,100065.59
2022-11-28T07:08:47.531Z,100065.69
2022-11-28T07:11:28.788Z,100065.59
2022-11-28T07:13:58.028Z,100080.53
2022-11-28T07:16:33.693Z,100076.25
2022-11-28T07:19:01.323Z,100078.81
2022-11-28T07:21:29.012Z,100079.78
2022-11-28T07:23:58.248Z,100083.28
2022-11-28T07:26:25.559Z,100085.06
2022-11-28T07:28:52.805Z,100091.38
2022-11-28T07:31:28.916Z,100083.59
2022-11-28T07:33:56.022Z,100079.34
2022-11-28T07:36:25.925Z,100083.63
2022-11-28T07:38:57.380Z,100080.13
2022-11-28T07:41:27.002Z,100083.75
2022-11-28T07:44:02.333Z,100082.94
2022-11-28T07:46:32.693Z,100086.44
2022-11-28T07:49:00.510Z,100084.88
2022-11-28T07:51:33.418Z,100083.19
2022-11-28T07:54:02.480Z,100090.28
2022-11-28T07:57:04.118Z,100097.38
2022-11-28T07:59:20.198Z,100094.91
2022-11-28T08:01:48.762Z,100097.63
2022-11-28T08:04:15.823Z,100092.44
2022-11-28T08:06:44.370Z,100094.28
2022-11-28T08:09:14.646Z,100096.09
2022-11-28T08:11:41.942Z,100091.78
2022-11-28T08:14:09.465Z,100090.13
2022-11-28T08:16:37.114Z,100095.50
2022-11-28T08:19:04.410Z,100085.06
2022-11-28T08:21:33.360Z,100088.56
2022-11-28T08:24:01.899Z,100088.56
2022-11-28T08:26:31.279Z,100083.38
2022-11-28T08:29:00.342Z,100093.00
2022-11-28T08:31:34.996Z,100095.75
2022-11-28T08:34:05.822Z,100098.47
2022-11-28T08:36:33.177Z,100092.38
2022-11-28T08:39:23.864Z,100093.38
2022-11-28T08:41:49.860Z,100091.69
2022-11-28T08:44:16.844Z,100100.47
2022-11-28T08:46:44.177Z,100097.91
2022-11-28T08:49:11.232Z,100104.16
2022-11-28T08:51:38.243Z,100090.28
2022-11-28T08:54:05.408Z,100094.63
2022-11-28T08:56:32.528Z,100091.19
2022-11-28T08:59:00.621Z,100093.94
2022-11-28T09:01:28.642Z,100095.78
2022-11-28T09:03:57.010Z,100096.63
2022-11-28T09:06:25.072Z,100099.31
2022-11-28T09:08:52.776Z,100105.53
2022-11-28T09:11:22.116Z,100104.84
2022-11-28T09:13:49.705Z,100098.78
2022-11-28T09:16:17.203Z,100095.16
2022-11-28T09:18:44.641Z,100098.69
2022-11-28T09:21:15.131Z,100110.19
2022-11-28T09:23:45.099Z,100111.13
2022-11-28T09:26:19.851Z,100104.16
2022-11-28T09:28:47.724Z,100118.31
2022-11-28T09:31:17.566Z,100118.25
2022-11-28T09:33:46.627Z,100118.31
2022-11-28T09:36:20.380Z,100121.09
2022-11-28T09:38:48.137Z,100117.66
2022-11-28T09:41:36.165Z,100120.38
2022-11-28T09:44:24.118Z,100125.69
2022-11-28T09:46:56.915Z,100126.59
2022-11-28T09:49:42.513Z,100105.56
2022-11-28T09:52:33.392Z,100127.56
2022-11-28T09:55:27.708Z,100130.22
2022-11-28T09:57:56.767Z,100131.22
2022-11-28T10:00:55.413Z,100132.06
2022-11-28T10:03:59.822Z,100140.06
2022-11-28T10:06:48.708Z,100145.69
2022-11-28T10:09:51.603Z,100159.03
2022-11-28T10:12:21.481Z,100151.16
2022-11-28T10:15:12.691Z,100154.00
2022-11-28T10:17:48.597Z,100151.38
2022-11-28T10:20:42.713Z,100156.00
2022-11-28T10:23:20.432Z,100149.84
2022-11-28T10:25:57.769Z,100156.06
2022-11-28T10:28:38.912Z,100152.66
2022-11-28T10:31:19.685Z,100143.88
2022-11-28T10:33:58.067Z,100158.78
2022-11-28T10:36:32.269Z,100159.13
2022-11-28T10:39:11.164Z,100152.97
2022-11-28T10:42:09.365Z,100154.75
2022-11-28T10:45:03.989Z,100154.63
2022-11-28T10:48:03.996Z,100159.19
2022-11-28T10:51:11.626Z,100156.41
2022-11-28T10:54:09.668Z,100160.88
2022-11-28T10:57:24.703Z,100166.19
2022-11-28T11:00:23.766Z,100165.47
2022-11-28T11:02:52.523Z,100171.75
2022-11-28T11:05:31.164Z,100178.78
2022-11-28T11:08:23.154Z,100168.34
2022-11-28T11:11:18.638Z,100157.81
2022-11-28T11:14:02.370Z,100151.63
2022-11-28T11:17:06.732Z,100166.47
2022-11-28T11:19:36.285Z,100169.16
2022-11-28T11:22:22.273Z,100163.97
2022-11-28T11:25:15.572Z,100168.44
2022-11-28T11:27:51.955Z,100163.19
2022-11-28T11:30:31.365Z,100157.09
2022-11-28T11:33:01.771Z,100162.53
2022-11-28T11:35:35.975Z,100159.06
2022-11-28T11:38:21.109Z,100169.66
2022-11-28T11:40:50.576Z,100158.38
2022-11-28T11:43:29.684Z,100169.97
2022-11-28T11:48:48.700Z,100154.31
2022-11-28T11:51:27.992Z,100157.06
2022-11-28T11:54:13.265Z,100155.31
2022-11-28T11:56:46.837Z,100158.16
2022-11-28T11:59:41.235Z,100152.97
2022-11-28T12:02:35.391Z,100153.81
2022-11-28T12:05:18.026Z,100138.94
2022-11-28T12:08:03.622Z,100154.94
2022-11-28T12:10:37.744Z,100150.66
2022-11-28T12:13:04.932Z,100156.94
2022-11-28T12:16:15.107Z,100152.66
2022-11-28T12:18:57.283Z,100149.34
2022-11-28T12:22:03.968Z,100161.00
2022-11-28T12:25:18.613Z,100158.50
2022-11-28T12:28:28.187Z,100157.81
2022-11-28T12:31:29.569Z,100142.81
2022-11-28T12:34:17.970Z,100154.28
2022-11-28T12:37:06.485Z,100144.63
2022-11-28T12:39:44.986Z,100155.31
2022-11-28T12:43:02.884Z,100144.13
2022-11-28T12:45:56.025Z,100141.44
2022-11-28T12:49:02.763Z,100146.03
2022-11-28T12:52:20.037Z,100139.06
2022-11-28T12:55:13.768Z,100133.78
2022-11-28T12:58:13.894Z,100127.72
2022-11-28T13:01:02.343Z,100120.59
2022-11-28T13:03:34.908Z,100134.78
2022-11-28T13:06:27.803Z,100133.94
2022-11-28T13:09:22.824Z,100127.91
2022-11-28T13:12:21.850Z,100118.22
2022-11-28T13:14:56.137Z,100107.75
2022-11-28T13:17:43.776Z,100108.63
2022-11-28T13:20:35.933Z,100096.28
2022-11-28T13:23:18.857Z,100107.81
2022-11-28T13:26:00.477Z,100100.75
2022-11-28T13:28:48.925Z,100101.63
2022-11-28T13:31:28.270Z,100093.75
2022-11-28T13:33:56.935Z,100096.38
2022-11-28T13:39:52.235Z,100112.28
2022-11-28T13:42:59.365Z,100113.19
2022-11-28T13:45:32.416Z,100107.94
2022-11-28T13:48:01.040Z,100107.97
2022-11-28T13:50:38.227Z,100119.41
2022-11-28T13:53:10.345Z,100112.31
2022-11-28T13:55:47.652Z,100113.16
2022-11-28T13:58:28.879Z,100112.31
2022-11-28T14:01:18.145Z,100115.84
2022-11-28T14:03:53.648Z,100107.88
2022-11-28T14:06:25.739Z,100113.19
2022-11-28T14:09:17.584Z,100122.03
2022-11-28T14:12:13.367Z,100118.47
2022-11-28T14:15:07.331Z,100125.59
2022-11-28T14:17:56.127Z,100125.63
2022-11-28T14:20:58.060Z,100129.06
2022-11-28T14:23:38.930Z,100128.16
2022-11-28T14:26:23.933Z,100134.31
2022-11-28T14:28:51.923Z,100145.69
2022-11-28T14:31:32.266Z,100140.41
2022-11-28T14:34:31.083Z,100142.22
2022-11-28T14:38:08.295Z,100138.56
2022-11-28T14:40:56.414Z,100150.09
2022-11-28T14:43:33.328Z,100152.69
2022-11-28T14:46:28.899Z,100149.22
2022-11-28T14:48:58.993Z,100143.91
2022-11-28T14:51:47.921Z,100142.03
2022-11-28T14:54:36.356Z,100143.75
2022-11-28T14:57:18.360Z,100151.69
2022-11-28T14:59:46.415Z,100147.28
2022-11-28T15:02:13.327Z,100154.25
2022-11-28T15:05:30.247Z,100148.00
2022-11-28T15:08:38.248Z,100140.94
2022-11-28T15:11:25.752Z,100133.75
2022-11-28T15:14:14.541Z,100134.53
2022-11-28T15:16:50.134Z,100139.78
2022-11-28T15:19:20.506Z,100129.16
2022-11-28T15:21:51.660Z,100133.50
2022-11-28T15:24:31.650Z,100136.13
2022-11-28T15:27:22.833Z,100135.19
2022-11-28T15:29:57.160Z,100143.06
2022-11-28T15:32:26.984Z,100139.47
2022-11-28T15:35:10.882Z,100146.53
2022-11-28T15:37:47.272Z,100141.25
2022-11-28T15:40:34.872Z,100150.91
2022-11-28T15:43:08.063Z,100152.66
2022-11-28T15:45:42.323Z,100150.06
2022-11-28T15:48:40.338Z,100146.47
2022-11-28T15:51:08.774Z,100146.44
2022-11-28T15:53:42.449Z,100139.44
2022-11-28T15:56:15.666Z,100141.16
2022-11-28T15:58:44.933Z,100140.22
2022-11-28T16:01:14.922Z,100150.78
2022-11-28T16:03:59.267Z,100142.91
2022-11-28T16:06:30.887Z,100140.22
2022-11-28T16:09:06.139Z,100134.94
2022-11-28T16:11:35.770Z,100137.53
2022-11-28T16:14:09.601Z,100149.84
2022-11-28T16:16:38.672Z,100153.38
2022-11-28T16:19:15.197Z,100148.97
2022-11-28T16:21:54.009Z,100152.44
2022-11-28T16:24:38.685Z,100146.28
2022-11-28T16:27:06.458Z,100145.41
2022-11-28T16:29:36.675Z,100153.28
2022-11-28T16:32:35.073Z,100148.00
2022-11-28T16:35:04.328Z,100142.69
2022-11-28T16:37:33.878Z,100142.75
2022-11-28T16:40:18.591Z,100140.03
2022-11-28T16:42:57.338Z,100142.59
2022-11-28T16:45:33.014Z,100141.78
2022-11-28T16:48:16.907Z,100146.19
2022-11-28T16:51:13.353Z,100155.88
2022-11-28T16:53:46.619Z,100148.00
2022-11-28T16:56:33.826Z,100147.09
2022-11-28T16:59:11.980Z,100145.38
2022-11-28T17:01:41.075Z,100147.13
2022-11-28T17:04:25.678Z,100150.63
2022-11-28T17:06:57.147Z,100145.31
2022-11-28T17:09:24.311Z,100147.09
2022-11-28T17:12:28.095Z,100148.81
2022-11-28T17:14:56.208Z,100152.38
2022-11-28T17:17:23.940Z,100153.28
2022-11-28T17:19:51.985Z,100158.53
2022-11-28T17:22:40.233Z,100147.16
2022-11-28T17:25:16.782Z,100146.28
2022-11-28T17:27:44.343Z,100148.06
2022-11-28T17:30:17.760Z,100142.75
2022-11-28T17:32:49.108Z,100154.25
2022-11-28T17:35:24.103Z,100145.38
2022-11-28T17:37:51.196Z,100153.28
2022-11-28T17:40:33.324Z,100153.28
2022-11-28T17:43:01.473Z,100155.91
2022-11-28T17:45:34.665Z,100149.78
2022-11-28T17:48:02.146Z,100160.34
2022-11-28T17:50:35.501Z,100151.63
2022-11-28T17:53:02.589Z,100149.81
2022-11-28T17:55:29.827Z,100149.75
2022-11-28T17:57:57.137Z,100149.78
2022-11-28T18:00:24.600Z,100148.94
2022-11-28T18:02:52.822Z,100148.88
2022-11-28T18:05:19.968Z,100158.59
2022-11-28T18:07:47.044Z,100155.09
2022-11-28T18:10:14.120Z,100146.16
2022-11-28T18:12:41.267Z,100146.94
2022-11-28T18:15:14.225Z,100142.56
2022-11-28T18:17:41.288Z,100152.19
2022-11-28T18:20:08.931Z,100148.72
2022-11-28T18:22:35.940Z,100153.03
2022-11-28T18:25:02.964Z,100157.34
2022-11-28T18:27:29.915Z,100151.25
2022-11-28T18:29:56.908Z,100153.88
2022-11-28T18:32:24.028Z,100153.00
2022-11-28T18:34:51.014Z,100153.03
2022-11-28T18:37:18.129Z,100155.66
2022-11-28T18:39:45.524Z,100151.28
2022-11-28T18:42:13.024Z,100152.13
2022-11-28T18:44:40.055Z,100152.13
2022-11-28T18:47:07.002Z,100160.03
2022-11-28T18:49:34.020Z,100157.34
2022-11-28T18:52:01.326Z,100149.47
2022-11-28T18:54:31.073Z,100154.72
2022-11-28T18:56:58.028Z,100164.41
2022-11-28T18:59:25.301Z,100150.28
2022-11-28T19:01:52.478Z,100145.94
2022-11-28T19:04:19.806Z,100153.03
2022-11-28T19:06:48.578Z,100152.06
2022-11-28T19:09:17.408Z,100153.88
2022-11-28T19:11:46.155Z,100145.06
2022-11-28T19:14:18.967Z,100143.25
2022-11-28T19:16:47.044Z,100147.66
2022-11-28T19:19:14.108Z,100153.84
2022-11-28T19:21:41.139Z,100152.00
2022-11-28T19:24:08.908Z,100154.69
2022-11-28T19:26:39.035Z,100151.19
2022-11-28T19:29:06.596Z,100156.44
2022-11-28T19:31:36.645Z,100155.59
2022-11-28T19:34:10.179Z,100153.84
2022-11-28T19:36:49.178Z,100160.81
2022-11-28T19:39:22.158Z,100149.44
2022-11-28T19:41:51.566Z,100154.72
2022-11-28T19:44:21.002Z,100153.03
2022-11-28T19:46:48.239Z,100159.13
2022-11-28T19:49:21.672Z,100160.91
2022-11-28T19:51:49.992Z,100155.63
2022-11-28T19:54:21.436Z,100155.69
2022-11-28T19:56:49.003Z,100163.59
2022-11-28T19:59:16.582Z,100168.84
2022-11-28T20:01:44.078Z,100157.41
2022-11-28T20:04:11.395Z,100159.19
2022-11-28T20:06:38.374Z,100161.81
2022-11-28T20:09:10.048Z,100169.69
2022-11-28T20:11:38.673Z,100161.78
2022-11-28T20:14:17.400Z,100162.72
2022-11-28T20:16:47.894Z,100165.41
2022-11-28T20:19:15.313Z,100172.34
2022-11-28T20:21:42.541Z,100172.34
2022-11-28T20:24:10.916Z,100168.84
2022-11-28T20:26:41.752Z,100172.38
2022-11-28T20:29:11.033Z,100175.91
2022-11-28T20:31:45.729Z,100172.34
2022-11-28T20:34:15.518Z,100182.84
2022-11-28T20:36:43.727Z,100181.09
2022-11-28T20:39:12.585Z,100181.94
2022-11-28T20:41:39.737Z,100183.72
2022-11-28T20:44:07.297Z,100182.84
2022-11-28T20:46:35.993Z,100185.47
2022-11-28T20:49:06.558Z,100187.25
2022-11-28T20:51:38.664Z,100194.28
2022-11-28T20:54:07.065Z,100188.13
2022-11-28T20:57:05.234Z,100189.00
2022-11-28T20:59:26.580Z,100189.88
2022-11-28T21:01:53.648Z,100184.63
2022-11-28T21:04:20.797Z,100183.72
2022-11-28T21:06:49.175Z,100193.41
2022-11-28T21:09:18.526Z,100188.13
2022-11-28T21:12:02.596Z,100189.03
2022-11-28T21:14:32.151Z,100189.91
2022-11-28T21:17:01.931Z,100186.28
2022-11-28T21:19:28.927Z,100187.22
2022-11-28T21:21:58.354Z,100188.97
2022-11-28T21:24:25.461Z,100188.06
2022-11-28T21:26:54.693Z,100199.50
2022-11-28T21:29:23.365Z,100196.03
2022-11-28T21:31:50.694Z,100206.56
2022-11-28T21:34:19.438Z,100193.38
2022-11-28T21:36:46.808Z,100195.19
2022-11-28T21:39:17.433Z,100195.03
2022-11-28T21:41:44.507Z,100204.72
2022-11-28T21:44:11.506Z,100196.81
2022-11-28T21:46:38.651Z,100200.25
2022-11-28T21:49:05.755Z,100205.66
2022-11-28T21:51:32.892Z,100201.25
2022-11-28T21:53:59.943Z,100208.22
2022-11-28T21:56:27.038Z,100207.31
2022-11-28T21:58:54.285Z,100204.59
2022-11-28T22:01:21.736Z,100212.50
2022-11-28T22:03:49.460Z,100203.72
2022-11-28T22:06:20.831Z,100208.94
2022-11-28T22:08:48.743Z,100214.19
2022-11-28T22:11:16.030Z,100216.88
2022-11-28T22:13:45.942Z,100222.19
2022-11-28T22:16:25.781Z,100215.91
2022-11-28T22:18:55.659Z,100219.41
2022-11-28T22:21:50.726Z,100225.63
2022-11-28T22:24:10.239Z,100222.06
2022-11-28T22:26:37.310Z,100224.69
2022-11-28T22:29:04.826Z,100221.09
2022-11-28T22:31:32.074Z,100219.50
2022-11-28T22:33:59.104Z,100223.81
2022-11-28T22:36:26.283Z,100222.88
2022-11-28T22:38:59.309Z,100235.13
2022-11-28T22:41:29.777Z,100227.28
2022-11-28T22:44:00.781Z,100233.38
2022-11-28T22:46:29.133Z,100232.47
2022-11-28T22:48:56.588Z,100238.50
2022-11-28T22:51:26.547Z,100243.78
2022-11-28T22:54:01.717Z,100240.31
2022-11-28T22:56:31.605Z,100242.16
2022-11-28T22:58:59.799Z,100244.75
2022-11-28T23:01:31.307Z,100242.94
2022-11-28T23:03:59.302Z,100244.78
2022-11-28T23:06:30.572Z,100246.56
2022-11-28T23:09:00.588Z,100245.66
2022-11-28T23:11:35.643Z,100250.88
2022-11-28T23:14:03.584Z,100255.31
2022-11-28T23:16:39.988Z,100251.81
2022-11-28T23:19:18.551Z,100247.44
2022-11-28T23:21:49.182Z,100252.66
2022-11-28T23:24:21.759Z,100249.22
2022-11-28T23:26:50.512Z,100247.41
2022-11-28T23:29:18.767Z,100244.91
2022-11-28T23:31:47.598Z,100254.53
2022-11-28T23:34:16.059Z,100251.81
2022-11-28T23:36:46.149Z,100250.03
2022-11-28T23:39:20.719Z,100251.78
2022-11-28T23:41:48.881Z,100255.28
2022-11-28T23:44:18.254Z,100252.69
2022-11-28T23:46:46.575Z,100256.19
2022-11-28T23:49:13.912Z,100257.13
2022-11-28T23:51:41.762Z,100259.81
2022-11-28T23:54:11.449Z,100258.00
2022-11-28T23:56:40.580Z,100261.56
2022-11-28T23:59:10.433Z,100257.22
